sensor_id;sensor_type;location;lat;lon;timestamp;pressure;altitude;pressure_sealevel;temperature;humidity
39295;BME280;52361;52.100;5.248;2023-02-18T00:01:00;102101.0;;;12.13;100.0
39295;BME280;52361;52.100;5.248;2023-02-18T00:04:14;102105.0;;;12.16;100.0
39295;BME280;52361;52.100;5.248;2023-02-18T00:05:51;102098.0;;;12.11;100.0
39295;BME280;52361;52.100;5.248;2023-02-18T00:07:28;102101.0;;;12.2;100.0
39295;BME280;52361;52.100;5.248;2023-02-18T00:10:46;102099.0;;;12.06;100.0
39295;BME280;52361;52.100;5.248;2023-02-18T00:12:23;102098.0;;;12.08;100.0
39295;BME280;52361;52.100;5.248;2023-02-18T00:14:01;102099.0;;;12.04;100.0
39295;BME280;52361;52.100;5.248;2023-02-18T00:17:15;102097.0;;;11.99;100.0
39295;BME280;52361;52.100;5.248;2023-02-18T00:18:54;102099.0;;;12.01;100.0
39295;BME280;52361;52.100;5.248;2023-02-18T00:20:32;102095.0;;;11.99;100.0
39295;BME280;52361;52.100;5.248;2023-02-18T00:22:09;102091.0;;;11.95;100.0
39295;BME280;52361;52.100;5.248;2023-02-18T00:25:22;102086.0;;;11.87;100.0
39295;BME280;52361;52.100;5.248;2023-02-18T00:26:58;102097.0;;;11.88;100.0
39295;BME280;52361;52.100;5.248;2023-02-18T00:28:35;102094.0;;;11.88;100.0
39295;BME280;52361;52.100;5.248;2023-02-18T00:31:48;102094.0;;;11.85;100.0
39295;BME280;52361;52.100;5.248;2023-02-18T00:33:24;102090.0;;;11.8;100.0
39295;BME280;52361;52.100;5.248;2023-02-18T00:35:02;102082.0;;;11.82;100.0
39295;BME280;52361;52.100;5.248;2023-02-18T00:36:39;102084.0;;;11.82;100.0
39295;BME280;52361;52.100;5.248;2023-02-18T00:39:52;102075.0;;;11.75;100.0
39295;BME280;52361;52.100;5.248;2023-02-18T00:41:30;102073.0;;;11.8;100.0
39295;BME280;52361;52.100;5.248;2023-02-18T00:43:06;102076.0;;;11.85;100.0
39295;BME280;52361;52.100;5.248;2023-02-18T00:46:20;102083.0;;;11.77;100.0
39295;BME280;52361;52.100;5.248;2023-02-18T00:47:57;102081.0;;;11.73;100.0
39295;BME280;52361;52.100;5.248;2023-02-18T00:49:33;102083.0;;;11.75;100.0
39295;BME280;52361;52.100;5.248;2023-02-18T00:52:47;102075.0;;;11.73;100.0
39295;BME280;52361;52.100;5.248;2023-02-18T00:54:23;102071.0;;;11.66;100.0
39295;BME280;52361;52.100;5.248;2023-02-18T00:55:59;102068.0;;;11.63;100.0
39295;BME280;52361;52.100;5.248;2023-02-18T00:57:37;102064.0;;;11.56;100.0
39295;BME280;52361;52.100;5.248;2023-02-18T01:00:49;102064.0;;;11.55;100.0
39295;BME280;52361;52.100;5.248;2023-02-18T01:02:26;102063.0;;;11.48;100.0
39295;BME280;52361;52.100;5.248;2023-02-18T01:04:03;102058.0;;;11.41;100.0
39295;BME280;52361;52.100;5.248;2023-02-18T01:07:17;102059.0;;;11.43;100.0
39295;BME280;52361;52.100;5.248;2023-02-18T01:08:54;102057.0;;;11.43;100.0
39295;BME280;52361;52.100;5.248;2023-02-18T01:10:31;102060.0;;;11.46;100.0
39295;BME280;52361;52.100;5.248;2023-02-18T01:12:08;102059.0;;;11.3;100.0
39295;BME280;52361;52.100;5.248;2023-02-18T01:15:22;102066.0;;;11.44;100.0
39295;BME280;52361;52.100;5.248;2023-02-18T01:16:59;102067.0;;;11.43;100.0
39295;BME280;52361;52.100;5.248;2023-02-18T01:18:35;102059.0;;;11.45;100.0
39295;BME280;52361;52.100;5.248;2023-02-18T01:21:50;102061.0;;;11.39;100.0
39295;BME280;52361;52.100;5.248;2023-02-18T01:23:26;102063.0;;;11.34;100.0
39295;BME280;52361;52.100;5.248;2023-02-18T01:25:04;102064.0;;;11.36;100.0
39295;BME280;52361;52.100;5.248;2023-02-18T01:28:18;102063.0;;;11.3;100.0
39295;BME280;52361;52.100;5.248;2023-02-18T01:29:54;102060.0;;;11.44;100.0
39295;BME280;52361;52.100;5.248;2023-02-18T01:31:30;102058.0;;;11.45;100.0
39295;BME280;52361;52.100;5.248;2023-02-18T01:33:06;102049.0;;;11.34;100.0
39295;BME280;52361;52.100;5.248;2023-02-18T01:36:19;102045.0;;;11.26;100.0
39295;BME280;52361;52.100;5.248;2023-02-18T01:37:56;102032.0;;;11.25;100.0
39295;BME280;52361;52.100;5.248;2023-02-18T01:39:32;102035.0;;;11.34;100.0
39295;BME280;52361;52.100;5.248;2023-02-18T01:42:46;102030.0;;;11.45;100.0
39295;BME280;52361;52.100;5.248;2023-02-18T01:44:25;102022.0;;;11.33;100.0
39295;BME280;52361;52.100;5.248;2023-02-18T01:46:06;102027.0;;;11.35;100.0
39295;BME280;52361;52.100;5.248;2023-02-18T01:47:50;102030.0;;;11.42;100.0
39295;BME280;52361;52.100;5.248;2023-02-18T01:51:11;102023.0;;;11.34;100.0
39295;BME280;52361;52.100;5.248;2023-02-18T01:52:49;102025.0;;;11.28;100.0
39295;BME280;52361;52.100;5.248;2023-02-18T01:54:27;102027.0;;;11.34;100.0
39295;BME280;52361;52.100;5.248;2023-02-18T01:56:10;102025.0;;;11.35;100.0
39295;BME280;52361;52.100;5.248;2023-02-18T01:59:27;102018.0;;;11.23;100.0
39295;BME280;52361;52.100;5.248;2023-02-18T02:01:08;102016.0;;;11.26;100.0
39295;BME280;52361;52.100;5.248;2023-02-18T02:02:45;102017.0;;;11.28;100.0
39295;BME280;52361;52.100;5.248;2023-02-18T02:06:00;102019.0;;;11.37;100.0
39295;BME280;52361;52.100;5.248;2023-02-18T02:09:18;102005.0;;;11.35;100.0
39295;BME280;52361;52.100;5.248;2023-02-18T02:11:05;101998.0;;;11.35;100.0
39295;BME280;52361;52.100;5.248;2023-02-18T02:12:58;101996.0;;;11.41;100.0
39295;BME280;52361;52.100;5.248;2023-02-18T02:17:02;101988.0;;;11.35;100.0
39295;BME280;52361;52.100;5.248;2023-02-18T02:21:01;101992.0;;;11.36;100.0
39295;BME280;52361;52.100;5.248;2023-02-18T02:24:55;101976.0;;;11.48;100.0
39295;BME280;52361;52.100;5.248;2023-02-18T02:27:22;101972.0;;;11.43;100.0
39295;BME280;52361;52.100;5.248;2023-02-18T02:29:16;101955.0;;;11.37;100.0
39295;BME280;52361;52.100;5.248;2023-02-18T02:31:33;101948.0;;;11.28;100.0
39295;BME280;52361;52.100;5.248;2023-02-18T02:35:25;101947.0;;;11.23;100.0
39295;BME280;52361;52.100;5.248;2023-02-18T02:37:12;101937.0;;;11.26;100.0
39295;BME280;52361;52.100;5.248;2023-02-18T02:38:55;101927.0;;;11.27;100.0
39295;BME280;52361;52.100;5.248;2023-02-18T02:40:38;101917.0;;;11.31;100.0
39295;BME280;52361;52.100;5.248;2023-02-18T02:42:25;101910.0;;;11.23;100.0
39295;BME280;52361;52.100;5.248;2023-02-18T02:45:57;101900.0;;;11.36;100.0
39295;BME280;52361;52.100;5.248;2023-02-18T02:47:42;101901.0;;;11.31;100.0
39295;BME280;52361;52.100;5.248;2023-02-18T02:49:36;101895.0;;;11.36;100.0
39295;BME280;52361;52.100;5.248;2023-02-18T02:51:18;101890.0;;;11.37;100.0
39295;BME280;52361;52.100;5.248;2023-02-18T02:53:01;101897.0;;;11.49;100.0
39295;BME280;52361;52.100;5.248;2023-02-18T02:54:41;101885.0;;;11.54;100.0
39295;BME280;52361;52.100;5.248;2023-02-18T02:57:57;101885.0;;;11.53;100.0
39295;BME280;52361;52.100;5.248;2023-02-18T02:59:35;101877.0;;;11.51;100.0
39295;BME280;52361;52.100;5.248;2023-02-18T03:01:23;101876.0;;;11.54;100.0
39295;BME280;52361;52.100;5.248;2023-02-18T03:03:20;101870.0;;;11.52;100.0
39295;BME280;52361;52.100;5.248;2023-02-18T03:05:23;101869.0;;;11.44;100.0
39295;BME280;52361;52.100;5.248;2023-02-18T03:09:15;101861.0;;;11.5;100.0
39295;BME280;52361;52.100;5.248;2023-02-18T03:11:02;101859.0;;;11.57;100.0
39295;BME280;52361;52.100;5.248;2023-02-18T03:12:45;101855.0;;;11.58;100.0
39295;BME280;52361;52.100;5.248;2023-02-18T03:14:28;101867.0;;;11.54;100.0
39295;BME280;52361;52.100;5.248;2023-02-18T03:16:12;101861.0;;;11.6;100.0
39295;BME280;52361;52.100;5.248;2023-02-18T03:17:58;101866.0;;;11.62;100.0
39295;BME280;52361;52.100;5.248;2023-02-18T03:21:24;101856.0;;;11.59;100.0
39295;BME280;52361;52.100;5.248;2023-02-18T03:23:08;101863.0;;;11.55;100.0
39295;BME280;52361;52.100;5.248;2023-02-18T03:24:54;101855.0;;;11.57;100.0
39295;BME280;52361;52.100;5.248;2023-02-18T03:26:33;101846.0;;;11.6;100.0
39295;BME280;52361;52.100;5.248;2023-02-18T03:28:16;101841.0;;;11.62;100.0
39295;BME280;52361;52.100;5.248;2023-02-18T03:31:37;101842.0;;;11.55;100.0
39295;BME280;52361;52.100;5.248;2023-02-18T03:33:22;101831.0;;;11.6;100.0
39295;BME280;52361;52.100;5.248;2023-02-18T03:35:14;101824.0;;;11.63;100.0
39295;BME280;52361;52.100;5.248;2023-02-18T03:36:52;101822.0;;;11.63;100.0
39295;BME280;52361;52.100;5.248;2023-02-18T03:40:12;101823.0;;;11.52;100.0
39295;BME280;52361;52.100;5.248;2023-02-18T03:41:50;101807.0;;;11.57;100.0
39295;BME280;52361;52.100;5.248;2023-02-18T03:43:27;101808.0;;;11.64;100.0
39295;BME280;52361;52.100;5.248;2023-02-18T03:45:04;101800.0;;;11.59;100.0
39295;BME280;52361;52.100;5.248;2023-02-18T03:48:20;101788.0;;;11.59;100.0
39295;BME280;52361;52.100;5.248;2023-02-18T03:51:32;101790.0;;;11.67;100.0
39295;BME280;52361;52.100;5.248;2023-02-18T03:54:44;101787.0;;;11.77;100.0
39295;BME280;52361;52.100;5.248;2023-02-18T03:56:20;101785.0;;;11.7;100.0
39295;BME280;52361;52.100;5.248;2023-02-18T03:57:57;101778.0;;;11.68;100.0
39295;BME280;52361;52.100;5.248;2023-02-18T03:59:34;101773.0;;;11.64;100.0
39295;BME280;52361;52.100;5.248;2023-02-18T04:02:46;101766.0;;;11.71;100.0
39295;BME280;52361;52.100;5.248;2023-02-18T04:04:22;101772.0;;;11.73;100.0
39295;BME280;52361;52.100;5.248;2023-02-18T04:05:58;101768.0;;;11.77;100.0
39295;BME280;52361;52.100;5.248;2023-02-18T04:09:12;101764.0;;;11.81;100.0
39295;BME280;52361;52.100;5.248;2023-02-18T04:10:49;101758.0;;;11.72;100.0
39295;BME280;52361;52.100;5.248;2023-02-18T04:12:26;101757.0;;;11.73;100.0
39295;BME280;52361;52.100;5.248;2023-02-18T04:15:39;101762.0;;;11.78;100.0
39295;BME280;52361;52.100;5.248;2023-02-18T04:17:15;101766.0;;;11.8;100.0
39295;BME280;52361;52.100;5.248;2023-02-18T04:18:51;101767.0;;;11.87;100.0
39295;BME280;52361;52.100;5.248;2023-02-18T04:20:27;101755.0;;;11.79;100.0
39295;BME280;52361;52.100;5.248;2023-02-18T04:23:40;101756.0;;;11.81;100.0
39295;BME280;52361;52.100;5.248;2023-02-18T04:25:17;101757.0;;;11.8;100.0
39295;BME280;52361;52.100;5.248;2023-02-18T04:26:54;101744.0;;;11.82;100.0
39295;BME280;52361;52.100;5.248;2023-02-18T04:30:07;101743.0;;;11.75;100.0
39295;BME280;52361;52.100;5.248;2023-02-18T04:31:43;101742.0;;;11.84;100.0
39295;BME280;52361;52.100;5.248;2023-02-18T04:33:19;101739.0;;;11.89;100.0
39295;BME280;52361;52.100;5.248;2023-02-18T04:36:32;101728.0;;;11.91;100.0
39295;BME280;52361;52.100;5.248;2023-02-18T04:38:09;101744.0;;;11.81;100.0
39295;BME280;52361;52.100;5.248;2023-02-18T04:39:46;101745.0;;;11.74;100.0
39295;BME280;52361;52.100;5.248;2023-02-18T04:41:22;101743.0;;;11.74;100.0
39295;BME280;52361;52.100;5.248;2023-02-18T04:44:36;101733.0;;;11.81;100.0
39295;BME280;52361;52.100;5.248;2023-02-18T04:46:12;101728.0;;;11.85;100.0
39295;BME280;52361;52.100;5.248;2023-02-18T04:47:48;101721.0;;;11.8;100.0
39295;BME280;52361;52.100;5.248;2023-02-18T04:51:01;101713.0;;;11.71;100.0
39295;BME280;52361;52.100;5.248;2023-02-18T04:52:39;101708.0;;;11.86;100.0
39295;BME280;52361;52.100;5.248;2023-02-18T04:54:15;101706.0;;;11.77;100.0
39295;BME280;52361;52.100;5.248;2023-02-18T04:57:29;101706.0;;;11.67;100.0
39295;BME280;52361;52.100;5.248;2023-02-18T04:59:05;101699.0;;;11.75;100.0
39295;BME280;52361;52.100;5.248;2023-02-18T05:00:41;101697.0;;;11.73;100.0
39295;BME280;52361;52.100;5.248;2023-02-18T05:02:17;101693.0;;;11.67;100.0
39295;BME280;52361;52.100;5.248;2023-02-18T05:05:30;101698.0;;;11.66;100.0
39295;BME280;52361;52.100;5.248;2023-02-18T05:07:06;101705.0;;;11.62;100.0
39295;BME280;52361;52.100;5.248;2023-02-18T05:08:42;101705.0;;;11.72;100.0
39295;BME280;52361;52.100;5.248;2023-02-18T05:13:30;101706.0;;;11.77;100.0
39295;BME280;52361;52.100;5.248;2023-02-18T05:15:07;101703.0;;;11.79;100.0
39295;BME280;52361;52.100;5.248;2023-02-18T05:18:21;101706.0;;;11.73;100.0
39295;BME280;52361;52.100;5.248;2023-02-18T05:19:57;101709.0;;;11.79;100.0
39295;BME280;52361;52.100;5.248;2023-02-18T05:21:33;101705.0;;;11.77;100.0
39295;BME280;52361;52.100;5.248;2023-02-18T05:23:09;101708.0;;;11.79;100.0
39295;BME280;52361;52.100;5.248;2023-02-18T05:26:21;101697.0;;;11.66;100.0
39295;BME280;52361;52.100;5.248;2023-02-18T05:27:58;101699.0;;;11.59;100.0
39295;BME280;52361;52.100;5.248;2023-02-18T05:32:47;101687.0;;;11.74;100.0
39295;BME280;52361;52.100;5.248;2023-02-18T05:34:23;101677.0;;;11.64;100.0
39295;BME280;52361;52.100;5.248;2023-02-18T05:35:59;101687.0;;;11.65;100.0
39295;BME280;52361;52.100;5.248;2023-02-18T05:39:11;101681.0;;;11.78;100.0
39295;BME280;52361;52.100;5.248;2023-02-18T05:40:47;101676.0;;;11.66;100.0
39295;BME280;52361;52.100;5.248;2023-02-18T05:42:23;101677.0;;;11.82;100.0
39295;BME280;52361;52.100;5.248;2023-02-18T05:47:45;101664.0;;;11.72;100.0
39295;BME280;52361;52.100;5.248;2023-02-18T05:49:21;101666.0;;;11.72;100.0
39295;BME280;52361;52.100;5.248;2023-02-18T05:50:57;101677.0;;;11.79;100.0
39295;BME280;52361;52.100;5.248;2023-02-18T05:52:34;101677.0;;;11.78;100.0
39295;BME280;52361;52.100;5.248;2023-02-18T05:55:46;101673.0;;;11.81;100.0
39295;BME280;52361;52.100;5.248;2023-02-18T05:57:22;101672.0;;;11.85;100.0
39295;BME280;52361;52.100;5.248;2023-02-18T05:58:59;101658.0;;;11.86;100.0
39295;BME280;52361;52.100;5.248;2023-02-18T06:02:12;101653.0;;;11.83;100.0
39295;BME280;52361;52.100;5.248;2023-02-18T06:03:48;101649.0;;;11.77;100.0
39295;BME280;52361;52.100;5.248;2023-02-18T06:05:24;101656.0;;;11.76;100.0
39295;BME280;52361;52.100;5.248;2023-02-18T06:08:36;101648.0;;;11.8;100.0
39295;BME280;52361;52.100;5.248;2023-02-18T06:10:12;101650.0;;;11.9;100.0
39295;BME280;52361;52.100;5.248;2023-02-18T06:11:49;101658.0;;;11.78;100.0
39295;BME280;52361;52.100;5.248;2023-02-18T06:13:25;101656.0;;;11.89;100.0
39295;BME280;52361;52.100;5.248;2023-02-18T06:16:37;101664.0;;;11.78;100.0
39295;BME280;52361;52.100;5.248;2023-02-18T06:18:13;101659.0;;;11.86;100.0
39295;BME280;52361;52.100;5.248;2023-02-18T06:19:49;101657.0;;;11.95;100.0
39295;BME280;52361;52.100;5.248;2023-02-18T06:23:01;101661.0;;;11.91;100.0
39295;BME280;52361;52.100;5.248;2023-02-18T06:24:38;101660.0;;;11.87;100.0
39295;BME280;52361;52.100;5.248;2023-02-18T06:26:14;101663.0;;;11.91;100.0
39295;BME280;52361;52.100;5.248;2023-02-18T06:29:29;101664.0;;;11.88;100.0
39295;BME280;52361;52.100;5.248;2023-02-18T06:31:05;101662.0;;;11.98;100.0
39295;BME280;52361;52.100;5.248;2023-02-18T06:32:42;101659.0;;;11.91;100.0
39295;BME280;52361;52.100;5.248;2023-02-18T06:34:18;101658.0;;;11.99;100.0
39295;BME280;52361;52.100;5.248;2023-02-18T06:39:08;101659.0;;;11.97;100.0
39295;BME280;52361;52.100;5.248;2023-02-18T06:40:45;101656.0;;;11.89;100.0
39295;BME280;52361;52.100;5.248;2023-02-18T06:43:58;101655.0;;;11.92;100.0
39295;BME280;52361;52.100;5.248;2023-02-18T06:45:37;101667.0;;;11.85;100.0
39295;BME280;52361;52.100;5.248;2023-02-18T06:47:13;101666.0;;;11.86;100.0
39295;BME280;52361;52.100;5.248;2023-02-18T06:50:26;101673.0;;;11.8;100.0
39295;BME280;52361;52.100;5.248;2023-02-18T06:52:03;101668.0;;;11.74;100.0
39295;BME280;52361;52.100;5.248;2023-02-18T06:53:40;101668.0;;;11.82;100.0
39295;BME280;52361;52.100;5.248;2023-02-18T06:55:16;101671.0;;;11.92;100.0
39295;BME280;52361;52.100;5.248;2023-02-18T06:58:29;101671.0;;;11.95;100.0
39295;BME280;52361;52.100;5.248;2023-02-18T07:00:06;101670.0;;;11.97;100.0
39295;BME280;52361;52.100;5.248;2023-02-18T07:01:43;101665.0;;;12.03;100.0
39295;BME280;52361;52.100;5.248;2023-02-18T07:04:55;101661.0;;;11.98;100.0
39295;BME280;52361;52.100;5.248;2023-02-18T07:06:31;101658.0;;;11.97;100.0
39295;BME280;52361;52.100;5.248;2023-02-18T07:08:07;101658.0;;;11.9;100.0
39295;BME280;52361;52.100;5.248;2023-02-18T07:11:21;101661.0;;;11.87;100.0
39295;BME280;52361;52.100;5.248;2023-02-18T07:12:57;101659.0;;;11.99;100.0
39295;BME280;52361;52.100;5.248;2023-02-18T07:14:34;101661.0;;;12.0;100.0
39295;BME280;52361;52.100;5.248;2023-02-18T07:16:10;101663.0;;;11.93;100.0
39295;BME280;52361;52.100;5.248;2023-02-18T07:19:22;101658.0;;;11.96;100.0
39295;BME280;52361;52.100;5.248;2023-02-18T07:20:58;101663.0;;;11.96;100.0
39295;BME280;52361;52.100;5.248;2023-02-18T07:22:34;101664.0;;;11.93;100.0
39295;BME280;52361;52.100;5.248;2023-02-18T07:27:23;101657.0;;;11.99;100.0
39295;BME280;52361;52.100;5.248;2023-02-18T07:29:00;101662.0;;;11.99;100.0
39295;BME280;52361;52.100;5.248;2023-02-18T07:32:14;101663.0;;;11.89;100.0
39295;BME280;52361;52.100;5.248;2023-02-18T07:33:52;101660.0;;;11.95;100.0
39295;BME280;52361;52.100;5.248;2023-02-18T07:35:29;101661.0;;;11.8;100.0
39295;BME280;52361;52.100;5.248;2023-02-18T07:37:08;101657.0;;;11.81;100.0
39295;BME280;52361;52.100;5.248;2023-02-18T07:40:21;101659.0;;;11.88;100.0
39295;BME280;52361;52.100;5.248;2023-02-18T07:41:57;101653.0;;;11.98;100.0
39295;BME280;52361;52.100;5.248;2023-02-18T07:43:33;101660.0;;;11.83;100.0
39295;BME280;52361;52.100;5.248;2023-02-18T07:46:46;101644.0;;;11.79;100.0
39295;BME280;52361;52.100;5.248;2023-02-18T07:48:22;101655.0;;;11.83;100.0
39295;BME280;52361;52.100;5.248;2023-02-18T07:49:58;101657.0;;;11.88;100.0
39295;BME280;52361;52.100;5.248;2023-02-18T07:53:12;101655.0;;;11.8;100.0
39295;BME280;52361;52.100;5.248;2023-02-18T07:54:50;101656.0;;;11.85;100.0
39295;BME280;52361;52.100;5.248;2023-02-18T07:56:26;101663.0;;;11.81;100.0
39295;BME280;52361;52.100;5.248;2023-02-18T07:58:02;101649.0;;;11.89;100.0
39295;BME280;52361;52.100;5.248;2023-02-18T08:01:15;101665.0;;;11.74;100.0
39295;BME280;52361;52.100;5.248;2023-02-18T08:02:51;101670.0;;;11.82;100.0
39295;BME280;52361;52.100;5.248;2023-02-18T08:04:27;101663.0;;;11.88;100.0
39295;BME280;52361;52.100;5.248;2023-02-18T08:07:41;101663.0;;;11.83;100.0
39295;BME280;52361;52.100;5.248;2023-02-18T08:09:17;101673.0;;;11.77;100.0
39295;BME280;52361;52.100;5.248;2023-02-18T08:10:56;101680.0;;;11.85;100.0
39295;BME280;52361;52.100;5.248;2023-02-18T08:14:10;101682.0;;;11.86;100.0
39295;BME280;52361;52.100;5.248;2023-02-18T08:15:47;101670.0;;;11.89;100.0
39295;BME280;52361;52.100;5.248;2023-02-18T08:17:23;101680.0;;;11.81;100.0
39295;BME280;52361;52.100;5.248;2023-02-18T08:19:01;101678.0;;;11.8;100.0
39295;BME280;52361;52.100;5.248;2023-02-18T08:22:15;101681.0;;;11.76;100.0
39295;BME280;52361;52.100;5.248;2023-02-18T08:23:51;101685.0;;;11.85;100.0
39295;BME280;52361;52.100;5.248;2023-02-18T08:25:28;101678.0;;;11.68;100.0
39295;BME280;52361;52.100;5.248;2023-02-18T08:28:41;101685.0;;;11.76;100.0
39295;BME280;52361;52.100;5.248;2023-02-18T08:30:18;101678.0;;;11.69;100.0
39295;BME280;52361;52.100;5.248;2023-02-18T08:31:56;101668.0;;;11.82;100.0
39295;BME280;52361;52.100;5.248;2023-02-18T08:36:46;101684.0;;;11.61;100.0
39295;BME280;52361;52.100;5.248;2023-02-18T08:38:23;101678.0;;;11.64;100.0
39295;BME280;52361;52.100;5.248;2023-02-18T08:40:00;101686.0;;;11.55;100.0
39295;BME280;52361;52.100;5.248;2023-02-18T08:43:13;101685.0;;;11.53;100.0
39295;BME280;52361;52.100;5.248;2023-02-18T08:44:51;101684.0;;;11.61;100.0
39295;BME280;52361;52.100;5.248;2023-02-18T08:46:27;101673.0;;;11.53;100.0
39295;BME280;52361;52.100;5.248;2023-02-18T08:49:40;101680.0;;;11.59;100.0
39295;BME280;52361;52.100;5.248;2023-02-18T08:51:18;101676.0;;;11.53;100.0
39295;BME280;52361;52.100;5.248;2023-02-18T08:52:59;101669.0;;;11.51;100.0
39295;BME280;52361;52.100;5.248;2023-02-18T08:54:37;101680.0;;;11.63;100.0
39295;BME280;52361;52.100;5.248;2023-02-18T08:57:51;101684.0;;;11.57;100.0
39295;BME280;52361;52.100;5.248;2023-02-18T08:59:27;101683.0;;;11.57;100.0
39295;BME280;52361;52.100;5.248;2023-02-18T09:01:05;101686.0;;;11.49;100.0
39295;BME280;52361;52.100;5.248;2023-02-18T09:04:20;101695.0;;;11.43;100.0
39295;BME280;52361;52.100;5.248;2023-02-18T09:05:58;101691.0;;;11.55;100.0
39295;BME280;52361;52.100;5.248;2023-02-18T09:09:12;101693.0;;;11.57;100.0
39295;BME280;52361;52.100;5.248;2023-02-18T09:12:24;101705.0;;;11.52;100.0
39295;BME280;52361;52.100;5.248;2023-02-18T09:14:02;101692.0;;;11.57;100.0
39295;BME280;52361;52.100;5.248;2023-02-18T09:15:38;101688.0;;;11.58;100.0
39295;BME280;52361;52.100;5.248;2023-02-18T09:18:50;101702.0;;;11.64;100.0
39295;BME280;52361;52.100;5.248;2023-02-18T09:20:26;101702.0;;;11.63;100.0
39295;BME280;52361;52.100;5.248;2023-02-18T09:22:02;101709.0;;;11.69;100.0
39295;BME280;52361;52.100;5.248;2023-02-18T09:25:15;101700.0;;;11.63;100.0
39295;BME280;52361;52.100;5.248;2023-02-18T09:26:51;101702.0;;;11.67;100.0
39295;BME280;52361;52.100;5.248;2023-02-18T09:28:27;101690.0;;;11.6;100.0
39295;BME280;52361;52.100;5.248;2023-02-18T09:30:05;101689.0;;;11.54;100.0
39295;BME280;52361;52.100;5.248;2023-02-18T09:33:19;101694.0;;;11.61;100.0
39295;BME280;52361;52.100;5.248;2023-02-18T09:34:55;101702.0;;;11.63;100.0
39295;BME280;52361;52.100;5.248;2023-02-18T09:36:31;101697.0;;;11.69;100.0
39295;BME280;52361;52.100;5.248;2023-02-18T09:39:47;101699.0;;;11.63;100.0
39295;BME280;52361;52.100;5.248;2023-02-18T09:45:06;101711.0;;;11.78;100.0
39295;BME280;52361;52.100;5.248;2023-02-18T09:46:50;101721.0;;;11.87;100.0
39295;BME280;52361;52.100;5.248;2023-02-18T09:50:13;101715.0;;;11.83;100.0
39295;BME280;52361;52.100;5.248;2023-02-18T09:52:02;101722.0;;;11.9;100.0
39295;BME280;52361;52.100;5.248;2023-02-18T09:53:42;101721.0;;;11.92;100.0
39295;BME280;52361;52.100;5.248;2023-02-18T09:55:22;101721.0;;;11.93;100.0
39295;BME280;52361;52.100;5.248;2023-02-18T09:58:38;101714.0;;;11.96;100.0
39295;BME280;52361;52.100;5.248;2023-02-18T10:00:19;101716.0;;;11.98;100.0
39295;BME280;52361;52.100;5.248;2023-02-18T10:01:59;101722.0;;;12.01;100.0
39295;BME280;52361;52.100;5.248;2023-02-18T10:03:36;101721.0;;;11.99;100.0
39295;BME280;52361;52.100;5.248;2023-02-18T10:06:51;101720.0;;;12.0;100.0
39295;BME280;52361;52.100;5.248;2023-02-18T10:08:32;101730.0;;;12.06;100.0
39295;BME280;52361;52.100;5.248;2023-02-18T10:11:57;101722.0;;;12.14;100.0
39295;BME280;52361;52.100;5.248;2023-02-18T10:16:58;101725.0;;;12.33;100.0
39295;BME280;52361;52.100;5.248;2023-02-18T10:18:39;101731.0;;;12.29;100.0
39295;BME280;52361;52.100;5.248;2023-02-18T10:20:22;101735.0;;;12.31;100.0
39295;BME280;52361;52.100;5.248;2023-02-18T10:23:52;101734.0;;;12.26;100.0
39295;BME280;52361;52.100;5.248;2023-02-18T10:25:30;101740.0;;;12.23;100.0
39295;BME280;52361;52.100;5.248;2023-02-18T10:27:15;101742.0;;;12.27;100.0
39295;BME280;52361;52.100;5.248;2023-02-18T10:28:59;101746.0;;;12.26;100.0
39295;BME280;52361;52.100;5.248;2023-02-18T10:32:20;101732.0;;;12.22;100.0
39295;BME280;52361;52.100;5.248;2023-02-18T10:34:01;101746.0;;;12.25;100.0
39295;BME280;52361;52.100;5.248;2023-02-18T10:35:48;101741.0;;;12.41;100.0
39295;BME280;52361;52.100;5.248;2023-02-18T10:37:43;101751.0;;;12.39;100.0
39295;BME280;52361;52.100;5.248;2023-02-18T10:39:38;101748.0;;;12.33;100.0
39295;BME280;52361;52.100;5.248;2023-02-18T10:45:04;101761.0;;;12.33;100.0
39295;BME280;52361;52.100;5.248;2023-02-18T10:46:53;101751.0;;;12.42;100.0
39295;BME280;52361;52.100;5.248;2023-02-18T10:48:50;101756.0;;;12.51;100.0
39295;BME280;52361;52.100;5.248;2023-02-18T10:50:34;101755.0;;;12.45;100.0
39295;BME280;52361;52.100;5.248;2023-02-18T10:52:16;101763.0;;;12.51;100.0
39295;BME280;52361;52.100;5.248;2023-02-18T10:53:54;101761.0;;;12.47;100.0
39295;BME280;52361;52.100;5.248;2023-02-18T10:57:17;101755.0;;;12.62;100.0
39295;BME280;52361;52.100;5.248;2023-02-18T10:59:00;101748.0;;;12.48;100.0
39295;BME280;52361;52.100;5.248;2023-02-18T11:00:40;101755.0;;;12.51;100.0
39295;BME280;52361;52.100;5.248;2023-02-18T11:02:17;101753.0;;;12.54;100.0
39295;BME280;52361;52.100;5.248;2023-02-18T11:05:43;101761.0;;;12.67;100.0
39295;BME280;52361;52.100;5.248;2023-02-18T11:07:23;101746.0;;;12.58;100.0
39295;BME280;52361;52.100;5.248;2023-02-18T11:09:01;101753.0;;;12.69;100.0
39295;BME280;52361;52.100;5.248;2023-02-18T11:10:39;101755.0;;;12.79;100.0
39295;BME280;52361;52.100;5.248;2023-02-18T11:14:01;101743.0;;;12.91;100.0
39295;BME280;52361;52.100;5.248;2023-02-18T11:15:53;101745.0;;;12.97;100.0
39295;BME280;52361;52.100;5.248;2023-02-18T11:17:32;101740.0;;;13.05;100.0
39295;BME280;52361;52.100;5.248;2023-02-18T11:19:30;101741.0;;;13.02;100.0
39295;BME280;52361;52.100;5.248;2023-02-18T11:21:20;101751.0;;;13.17;100.0
39295;BME280;52361;52.100;5.248;2023-02-18T11:23:15;101756.0;;;13.22;100.0
39295;BME280;52361;52.100;5.248;2023-02-18T11:26:33;101753.0;;;13.25;100.0
39295;BME280;52361;52.100;5.248;2023-02-18T11:28:26;101757.0;;;13.23;100.0
39295;BME280;52361;52.100;5.248;2023-02-18T11:30:19;101765.0;;;13.13;100.0
39295;BME280;52361;52.100;5.248;2023-02-18T11:31:57;101760.0;;;13.32;100.0
39295;BME280;52361;52.100;5.248;2023-02-18T11:33:38;101756.0;;;13.18;100.0
39295;BME280;52361;52.100;5.248;2023-02-18T11:37:07;101759.0;;;13.14;100.0
39295;BME280;52361;52.100;5.248;2023-02-18T11:38:47;101764.0;;;12.88;100.0
39295;BME280;52361;52.100;5.248;2023-02-18T11:40:29;101755.0;;;12.93;100.0